createdAt,value
2022-09-13T00:00:53.234Z,84.80
2022-09-13T00:03:20.447Z,84.80
2022-09-13T00:05:48.009Z,85.00
2022-09-13T00:08:15.092Z,84.90
2022-09-13T00:10:42.904Z,84.90
2022-09-13T00:13:11.848Z,85.10
2022-09-13T00:15:44.428Z,85.00
2022-09-13T00:18:11.075Z,85.10
2022-09-13T00:20:37.975Z,85.10
2022-09-13T00:23:04.742Z,85.00
2022-09-13T00:25:31.500Z,84.80
2022-09-13T00:27:58.092Z,84.80
2022-09-13T00:30:24.819Z,84.40
2022-09-13T00:32:51.421Z,84.40
2022-09-13T00:35:18.056Z,84.20
2022-09-13T00:37:44.676Z,84.30
2022-09-13T00:40:11.460Z,84.30
2022-09-13T00:42:38.570Z,84.20
2022-09-13T00:45:11.291Z,84.30
2022-09-13T00:47:57.742Z,84.40
2022-09-13T00:50:39.385Z,84.60
2022-09-13T00:53:12.055Z,84.80
2022-09-13T00:55:48.211Z,84.80
2022-09-13T00:58:22.145Z,84.80
2022-09-13T01:00:49.828Z,85.20
2022-09-13T01:03:19.715Z,85.20
2022-09-13T01:05:54.075Z,85.10
2022-09-13T01:08:22.991Z,85.20
2022-09-13T01:10:56.125Z,85.30
2022-09-13T01:13:32.259Z,85.40
2022-09-13T01:16:00.076Z,85.50
2022-09-13T01:18:27.207Z,85.70
2022-09-13T01:21:18.678Z,85.70
2022-09-13T01:24:00.351Z,85.80
2022-09-13T01:27:06.179Z,85.70
2022-09-13T01:29:41.552Z,85.60
2022-09-13T01:32:46.924Z,85.30
2022-09-13T01:35:23.743Z,85.10
2022-09-13T01:38:37.702Z,84.70
2022-09-13T01:41:34.485Z,84.50
2022-09-13T01:44:19.527Z,84.70
2022-09-13T01:47:11.540Z,84.70
2022-09-13T01:49:43.739Z,84.50
2022-09-13T01:52:28.682Z,84.30
2022-09-13T01:55:27.281Z,84.30
2022-09-13T01:58:25.984Z,84.10
2022-09-13T02:01:10.707Z,84.20
2022-09-13T02:03:44.604Z,84.50
2022-09-13T02:06:18.471Z,84.50
2022-09-13T02:08:51.036Z,84.70
2022-09-13T02:11:22.319Z,84.60
2022-09-13T02:14:13.274Z,84.50
2022-09-13T02:16:47.318Z,84.80
2022-09-13T02:19:23.152Z,84.90
2022-09-13T02:21:55.952Z,84.80
2022-09-13T02:24:36.005Z,84.90
2022-09-13T02:27:10.362Z,85.00
2022-09-13T02:29:40.041Z,85.00
2022-09-13T02:32:22.995Z,84.80
2022-09-13T02:34:57.366Z,85.40
2022-09-13T02:37:27.147Z,84.30
2022-09-13T02:39:59.576Z,84.30
2022-09-13T02:42:31.795Z,84.10
2022-09-13T02:45:01.179Z,84.10
2022-09-13T02:47:59.468Z,83.60
2022-09-13T02:50:53.900Z,83.20
2022-09-13T02:53:33.986Z,82.50
2022-09-13T02:56:21.849Z,82.10
2022-09-13T02:59:15.118Z,81.40
2022-09-13T03:01:45.407Z,81.20
2022-09-13T03:04:12.278Z,80.80
2022-09-13T03:06:41.206Z,80.30
2022-09-13T03:09:08.957Z,80.30
2022-09-13T03:11:53.603Z,80.00
2022-09-13T03:14:43.011Z,79.40
2022-09-13T03:17:32.756Z,79.30
2022-09-13T03:20:29.451Z,79.10
2022-09-13T03:23:07.272Z,78.90
2022-09-13T03:26:03.046Z,78.90
2022-09-13T03:29:08.551Z,78.90
2022-09-13T03:31:56.858Z,78.70
2022-09-13T03:34:31.098Z,78.90
2022-09-13T03:37:18.343Z,78.90
2022-09-13T03:40:12.844Z,79.10
2022-09-13T03:42:50.547Z,79.30
2022-09-13T03:45:21.545Z,78.90
2022-09-13T03:47:50.223Z,79.30
2022-09-13T03:50:21.162Z,79.40
2022-09-13T03:52:51.671Z,79.70
2022-09-13T03:55:21.372Z,79.80
2022-09-13T03:57:47.980Z,79.70
2022-09-13T04:00:15.270Z,80.10
2022-09-13T04:02:42.054Z,81.10
2022-09-13T04:05:08.702Z,82.70
2022-09-13T04:07:35.334Z,82.80
2022-09-13T04:10:01.964Z,83.30
2022-09-13T04:12:31.228Z,83.00
2022-09-13T04:14:58.137Z,83.60
2022-09-13T04:17:24.756Z,84.00
2022-09-13T04:19:51.361Z,84.20
2022-09-13T04:22:17.983Z,84.30
2022-09-13T04:24:44.660Z,84.20
2022-09-13T04:27:12.243Z,84.80
2022-09-13T04:29:38.852Z,85.00
2022-09-13T04:32:05.672Z,85.20
2022-09-13T04:34:32.336Z,85.60
2022-09-13T04:36:58.944Z,87.50
2022-09-13T04:39:25.625Z,87.60
2022-09-13T04:41:54.484Z,88.00
2022-09-13T04:44:23.830Z,88.50
2022-09-13T04:46:50.876Z,88.80
2022-09-13T04:49:20.006Z,89.30
2022-09-13T04:51:46.819Z,89.50
2022-09-13T04:54:16.003Z,90.20
2022-09-13T04:56:43.910Z,89.70
2022-09-13T04:59:11.861Z,89.80
2022-09-13T05:01:38.821Z,90.50
2022-09-13T05:04:07.249Z,90.80
2022-09-13T05:06:34.355Z,90.90
2022-09-13T05:09:01.149Z,91.00
2022-09-13T05:11:28.783Z,91.00
2022-09-13T05:14:00.232Z,91.10
2022-09-13T05:16:29.487Z,91.30
2022-09-13T05:18:57.053Z,91.40
2022-09-13T05:21:24.175Z,91.20
2022-09-13T05:23:52.209Z,91.20
2022-09-13T05:26:19.577Z,91.40
2022-09-13T05:28:46.215Z,91.30
2022-09-13T05:31:17.390Z,91.50
2022-09-13T05:33:45.100Z,91.30
2022-09-13T05:36:11.935Z,91.50
2022-09-13T05:38:38.622Z,91.50
2022-09-13T05:41:06.314Z,91.50
2022-09-13T05:43:35.467Z,91.70
2022-09-13T05:46:02.894Z,92.10
2022-09-13T05:48:30.568Z,91.50
2022-09-13T05:51:03.806Z,91.70
2022-09-13T05:53:30.991Z,91.30
2022-09-13T05:55:57.644Z,91.60
2022-09-13T05:58:24.335Z,91.30
2022-09-13T06:00:55.666Z,91.00
2022-09-13T06:03:23.897Z,90.70
2022-09-13T06:05:54.578Z,90.70
2022-09-13T06:08:22.492Z,90.80
2022-09-13T06:11:00.739Z,90.90
2022-09-13T06:13:28.159Z,90.80
2022-09-13T06:15:56.307Z,90.20
2022-09-13T06:18:24.629Z,90.40
2022-09-13T06:20:51.834Z,90.40
2022-09-13T06:23:18.539Z,90.30
2022-09-13T06:25:45.127Z,90.20
2022-09-13T06:28:11.822Z,90.30
2022-09-13T06:30:38.403Z,90.10
2022-09-13T06:33:05.079Z,90.20
2022-09-13T06:35:31.773Z,89.80
2022-09-13T06:37:58.652Z,90.00
2022-09-13T06:40:26.443Z,90.20
2022-09-13T06:42:53.319Z,90.20
2022-09-13T06:45:20.008Z,90.20
2022-09-13T06:47:46.658Z,90.30
2022-09-13T06:50:13.787Z,89.60
2022-09-13T06:52:40.459Z,89.90
2022-09-13T06:55:10.799Z,89.70
2022-09-13T06:57:39.243Z,89.50
2022-09-13T07:00:06.539Z,88.90
2022-09-13T07:02:33.163Z,89.10
2022-09-13T07:04:59.775Z,89.00
2022-09-13T07:07:26.476Z,88.70
2022-09-13T07:09:53.313Z,89.00
2022-09-13T07:12:20.814Z,88.90
2022-09-13T07:14:47.505Z,88.60
2022-09-13T07:17:14.568Z,89.30
2022-09-13T07:19:41.316Z,89.20
2022-09-13T07:22:08.003Z,88.90
2022-09-13T07:24:34.619Z,89.20
2022-09-13T07:27:01.214Z,89.20
2022-09-13T07:29:27.934Z,88.70
2022-09-13T07:31:56.580Z,89.00
2022-09-13T07:34:25.063Z,88.70
2022-09-13T07:36:52.517Z,88.80
2022-09-13T07:39:22.636Z,88.60
2022-09-13T07:41:50.635Z,88.50
2022-09-13T07:44:17.284Z,88.40
2022-09-13T07:46:44.061Z,88.40
2022-09-13T07:49:13.091Z,88.20
2022-09-13T07:51:42.514Z,88.90
2022-09-13T07:54:14.732Z,89.30
2022-09-13T07:56:41.865Z,88.80
2022-09-13T07:59:13.197Z,87.90
2022-09-13T08:01:42.588Z,88.60
2022-09-13T08:04:14.694Z,87.60
2022-09-13T08:06:43.566Z,87.60
2022-09-13T08:09:11.139Z,88.00
2022-09-13T08:11:43.019Z,88.00
2022-09-13T08:14:12.174Z,88.10
2022-09-13T08:16:39.559Z,88.40
2022-09-13T08:19:07.730Z,88.60
2022-09-13T08:21:37.364Z,88.80
2022-09-13T08:24:05.693Z,88.80
2022-09-13T08:26:33.707Z,88.40
2022-09-13T08:29:02.987Z,88.00
2022-09-13T08:31:30.050Z,88.50
2022-09-13T08:33:57.706Z,87.90
2022-09-13T08:36:26.318Z,88.00
2022-09-13T08:38:55.742Z,87.70
2022-09-13T08:41:31.280Z,87.40
2022-09-13T08:44:09.055Z,87.90
2022-09-13T08:46:42.179Z,86.20
2022-09-13T08:49:23.964Z,84.80
2022-09-13T08:51:58.619Z,85.70
2022-09-13T08:54:25.550Z,85.30
2022-09-13T08:56:56.989Z,85.90
2022-09-13T08:59:57.719Z,84.20
2022-09-13T09:02:57.535Z,83.50
2022-09-13T09:05:29.330Z,81.80
2022-09-13T09:08:02.713Z,83.40
2022-09-13T09:10:33.590Z,81.40
2022-09-13T09:13:03.862Z,81.80
2022-09-13T09:15:47.881Z,81.50
2022-09-13T09:18:25.122Z,80.50
2022-09-13T09:20:54.836Z,80.60
2022-09-13T09:23:26.219Z,79.60
2022-09-13T09:26:17.861Z,79.00
2022-09-13T09:28:54.063Z,78.20
2022-09-13T09:31:38.833Z,79.00
2022-09-13T09:34:32.183Z,76.70
2022-09-13T09:37:16.754Z,77.20
2022-09-13T09:39:44.747Z,77.40
2022-09-13T09:42:18.229Z,77.80
2022-09-13T09:44:49.396Z,77.50
2022-09-13T09:47:20.265Z,78.30
2022-09-13T09:50:12.964Z,77.20
2022-09-13T09:53:06.873Z,76.90
2022-09-13T09:55:39.574Z,75.10
2022-09-13T09:58:08.478Z,75.70
2022-09-13T10:00:37.228Z,75.20
2022-09-13T10:03:18.883Z,74.10
2022-09-13T10:05:47.205Z,73.30
2022-09-13T10:08:28.372Z,74.30
2022-09-13T10:10:57.539Z,72.50
2022-09-13T10:13:28.530Z,73.70
2022-09-13T10:16:00.402Z,73.70
2022-09-13T10:18:47.388Z,68.90
2022-09-13T10:21:24.718Z,70.40
2022-09-13T10:23:51.959Z,64.30
2022-09-13T10:26:22.063Z,62.90
2022-09-13T10:29:16.395Z,64.10
2022-09-13T10:31:45.383Z,60.60
2022-09-13T10:34:17.835Z,60.30
2022-09-13T10:36:55.767Z,60.60
2022-09-13T10:39:23.867Z,58.10
2022-09-13T10:41:54.630Z,58.40
2022-09-13T10:44:28.361Z,58.50
2022-09-13T10:46:55.197Z,57.10
2022-09-13T10:49:47.209Z,57.00
2022-09-13T10:52:31.124Z,56.40
2022-09-13T10:55:18.849Z,57.60
2022-09-13T10:57:45.824Z,56.50
2022-09-13T11:00:21.285Z,58.80
2022-09-13T11:03:12.325Z,57.00
2022-09-13T11:06:09.956Z,54.20
2022-09-13T11:09:07.642Z,55.30
2022-09-13T11:11:52.346Z,52.30
2022-09-13T11:15:00.063Z,53.00
2022-09-13T11:18:03.907Z,51.20
2022-09-13T11:20:42.982Z,51.50
2022-09-13T11:23:28.390Z,51.10
2022-09-13T11:26:04.059Z,50.10
2022-09-13T11:28:48.928Z,52.40
2022-09-13T11:31:24.851Z,46.50
2022-09-13T11:33:57.345Z,46.80
2022-09-13T11:36:51.529Z,49.80
2022-09-13T11:39:39.824Z,46.40
2022-09-13T11:42:34.069Z,46.60
2022-09-13T11:45:22.239Z,49.50
2022-09-13T11:47:53.797Z,45.30
2022-09-13T11:50:28.565Z,46.30
2022-09-13T11:52:59.875Z,45.60
2022-09-13T11:55:32.354Z,47.30
2022-09-13T11:58:04.163Z,46.10
2022-09-13T12:00:30.970Z,47.70
2022-09-13T12:03:03.659Z,46.70
2022-09-13T12:05:41.443Z,45.10
2022-09-13T12:08:13.805Z,45.90
2022-09-13T12:11:02.605Z,48.90
2022-09-13T12:13:31.460Z,48.10
2022-09-13T12:16:02.333Z,46.80
2022-09-13T12:18:37.747Z,46.60
2022-09-13T12:21:29.113Z,45.30
2022-09-13T12:24:20.690Z,45.20
2022-09-13T12:26:59.339Z,46.50
2022-09-13T12:29:29.455Z,47.80
2022-09-13T12:32:02.491Z,45.60
2022-09-13T12:34:40.663Z,46.20
2022-09-13T12:37:11.795Z,46.70
2022-09-13T12:40:03.932Z,47.00
2022-09-13T12:42:47.485Z,44.70
2022-09-13T12:45:24.034Z,43.70
2022-09-13T12:48:00.635Z,43.20
2022-09-13T12:50:44.179Z,44.60
2022-09-13T12:53:52.442Z,43.70
2022-09-13T12:56:24.880Z,43.10
2022-09-13T12:59:35.534Z,43.20
2022-09-13T13:02:04.837Z,41.60
2022-09-13T13:04:35.164Z,42.30
2022-09-13T13:07:08.248Z,41.90
2022-09-13T13:09:48.232Z,42.10
2022-09-13T13:12:31.782Z,43.70
2022-09-13T13:15:00.906Z,40.40
2022-09-13T13:17:36.451Z,41.20
2022-09-13T13:20:45.040Z,39.40
2022-09-13T13:23:25.712Z,37.70
2022-09-13T13:26:23.486Z,38.70
2022-09-13T13:29:13.507Z,38.30
2022-09-13T13:31:45.478Z,37.70
2022-09-13T13:34:15.086Z,38.70
2022-09-13T13:36:41.672Z,33.20
2022-09-13T13:39:23.551Z,33.60
2022-09-13T13:42:02.983Z,34.90
2022-09-13T13:44:29.941Z,37.50
2022-09-13T13:47:08.840Z,35.00
2022-09-13T13:49:41.335Z,35.80
2022-09-13T13:52:10.710Z,35.30
2022-09-13T13:54:44.228Z,37.10
2022-09-13T13:57:39.021Z,36.90
2022-09-13T14:00:08.995Z,34.60
2022-09-13T14:02:53.467Z,33.10
2022-09-13T14:05:49.965Z,33.10
2022-09-13T14:08:35.157Z,33.90
2022-09-13T14:11:19.246Z,30.80
2022-09-13T14:14:16.415Z,31.40
2022-09-13T14:17:15.207Z,32.60
2022-09-13T14:19:48.972Z,30.20
2022-09-13T14:22:26.565Z,31.40
2022-09-13T14:24:55.998Z,31.50
2022-09-13T14:27:34.646Z,32.10
2022-09-13T14:30:27.287Z,31.50
2022-09-13T14:32:57.265Z,32.90
2022-09-13T14:35:34.057Z,33.90
2022-09-13T14:38:38.365Z,33.10
2022-09-13T14:41:20.258Z,34.90
2022-09-13T14:43:48.442Z,33.10
2022-09-13T14:46:23.030Z,33.80
2022-09-13T14:49:06.801Z,34.90
2022-09-13T14:51:44.965Z,36.20
2022-09-13T14:54:17.332Z,37.00
2022-09-13T14:56:50.017Z,35.90
2022-09-13T14:59:26.886Z,36.70
2022-09-13T15:01:53.639Z,36.60
2022-09-13T15:04:23.573Z,36.10
2022-09-13T15:07:18.716Z,37.70
2022-09-13T15:09:46.377Z,38.50
2022-09-13T15:12:28.155Z,40.80
2022-09-13T15:15:26.262Z,41.60
2022-09-13T15:18:04.356Z,41.60
2022-09-13T15:20:49.810Z,42.60
2022-09-13T15:23:28.497Z,41.90
2022-09-13T15:26:00.364Z,38.90
2022-09-13T15:28:30.116Z,39.80
2022-09-13T15:30:59.254Z,37.70
2022-09-13T15:33:31.475Z,38.40
2022-09-13T15:36:19.783Z,38.50
2022-09-13T15:39:16.998Z,38.00
2022-09-13T15:41:55.216Z,37.10
2022-09-13T15:44:22.798Z,37.20
2022-09-13T15:46:55.752Z,38.20
2022-09-13T15:49:27.071Z,36.60
2022-09-13T15:51:58.522Z,37.60
2022-09-13T15:54:31.275Z,36.90
2022-09-13T15:56:59.041Z,38.80
2022-09-13T15:59:25.810Z,38.60
2022-09-13T16:01:53.238Z,39.60
2022-09-13T16:04:19.981Z,39.00
2022-09-13T16:06:46.816Z,38.90
2022-09-13T16:09:22.639Z,40.10
2022-09-13T16:11:50.965Z,42.10
2022-09-13T16:14:19.117Z,42.80
2022-09-13T16:16:46.609Z,43.80
2022-09-13T16:19:21.226Z,44.40
2022-09-13T16:21:49.034Z,45.40
2022-09-13T16:24:16.637Z,45.10
2022-09-13T16:26:44.054Z,46.60
2022-09-13T16:29:11.898Z,47.30
2022-09-13T16:31:39.019Z,47.80
2022-09-13T16:34:06.179Z,48.80
2022-09-13T16:36:34.098Z,50.00
2022-09-13T16:39:01.068Z,51.20
2022-09-13T16:41:27.747Z,52.50
2022-09-13T16:43:55.299Z,53.80
2022-09-13T16:46:22.140Z,54.20
2022-09-13T16:48:56.549Z,55.20
2022-09-13T16:51:24.126Z,55.50
2022-09-13T16:53:52.320Z,56.00
2022-09-13T16:56:22.113Z,56.40
2022-09-13T16:58:50.419Z,57.30
2022-09-13T17:01:20.705Z,58.50
2022-09-13T17:03:50.789Z,59.30
2022-09-13T17:06:20.671Z,59.60
2022-09-13T17:08:53.422Z,60.30
2022-09-13T17:11:22.697Z,60.70
2022-09-13T17:13:49.596Z,60.80
2022-09-13T17:16:32.794Z,61.30
2022-09-13T17:19:02.918Z,61.80
2022-09-13T17:21:31.094Z,62.20
2022-09-13T17:23:58.153Z,63.30
2022-09-13T17:26:25.925Z,63.30
2022-09-13T17:28:53.201Z,63.30
2022-09-13T17:31:21.124Z,63.40
2022-09-13T17:33:48.568Z,63.30
2022-09-13T17:36:16.637Z,63.30
2022-09-13T17:38:43.406Z,63.50
2022-09-13T17:41:12.878Z,64.40
2022-09-13T17:43:42.500Z,65.00
2022-09-13T17:46:13.249Z,64.70
2022-09-13T17:48:40.044Z,65.10
2022-09-13T17:51:10.904Z,65.40
2022-09-13T17:53:43.663Z,65.50
2022-09-13T17:56:10.330Z,65.70
2022-09-13T17:58:37.043Z,66.10
2022-09-13T18:01:05.101Z,66.20
2022-09-13T18:03:32.149Z,66.70
2022-09-13T18:06:00.787Z,67.80
2022-09-13T18:08:29.218Z,68.50
2022-09-13T18:11:12.688Z,68.60
2022-09-13T18:13:42.559Z,69.00
2022-09-13T18:16:12.490Z,69.40
2022-09-13T18:18:43.821Z,70.10
2022-09-13T18:21:10.809Z,70.40
2022-09-13T18:23:37.481Z,70.70
2022-09-13T18:26:11.097Z,70.90
2022-09-13T18:28:39.382Z,70.90
2022-09-13T18:31:09.950Z,71.00
2022-09-13T18:33:37.070Z,71.10
2022-09-13T18:36:06.364Z,72.10
2022-09-13T18:38:41.281Z,71.30
2022-09-13T18:41:09.040Z,71.30
2022-09-13T18:43:36.948Z,71.50
2022-09-13T18:46:06.468Z,71.70
2022-09-13T18:48:38.987Z,72.00
2022-09-13T18:51:09.869Z,73.10
2022-09-13T18:53:37.203Z,73.10
2022-09-13T18:56:05.955Z,73.40
2022-09-13T18:58:35.161Z,73.90
2022-09-13T19:01:04.413Z,73.70
2022-09-13T19:03:32.076Z,73.60
2022-09-13T19:06:13.240Z,73.40
2022-09-13T19:08:40.504Z,73.80
2022-09-13T19:11:19.179Z,73.80
2022-09-13T19:13:57.177Z,74.10
2022-09-13T19:16:24.066Z,74.30
2022-09-13T19:18:53.552Z,74.50
2022-09-13T19:21:22.723Z,74.80
2022-09-13T19:23:59.499Z,75.30
2022-09-13T19:26:31.191Z,75.60
2022-09-13T19:29:04.323Z,76.90
2022-09-13T19:31:33.851Z,76.70
2022-09-13T19:34:02.109Z,77.20
2022-09-13T19:36:34.048Z,77.00
2022-09-13T19:39:01.628Z,77.70
2022-09-13T19:41:37.121Z,77.60
2022-09-13T19:44:28.202Z,77.60
2022-09-13T19:47:23.708Z,77.60
2022-09-13T19:49:41.644Z,77.70
2022-09-13T19:52:10.459Z,77.80
2022-09-13T19:54:57.475Z,78.00
2022-09-13T19:57:44.916Z,78.40
2022-09-13T20:00:12.316Z,78.80
2022-09-13T20:03:14.534Z,78.60
2022-09-13T20:05:41.217Z,78.70
2022-09-13T20:08:19.295Z,78.80
2022-09-13T20:10:47.008Z,79.10
2022-09-13T20:13:13.679Z,79.30
2022-09-13T20:15:40.418Z,79.50
2022-09-13T20:18:13.104Z,79.50
2022-09-13T20:20:42.613Z,79.90
2022-09-13T20:23:28.240Z,80.70
2022-09-13T20:25:55.007Z,80.40
2022-09-13T20:28:21.745Z,80.40
2022-09-13T20:30:55.784Z,80.30
2022-09-13T20:33:53.047Z,80.50
2022-09-13T20:36:19.621Z,80.80
2022-09-13T20:38:49.158Z,81.40
2022-09-13T20:41:17.055Z,81.10
2022-09-13T20:43:43.683Z,81.20
2022-09-13T20:46:12.918Z,81.40
2022-09-13T20:48:40.297Z,81.30
2022-09-13T20:51:10.364Z,82.00
2022-09-13T20:53:37.773Z,82.70
2022-09-13T20:56:14.235Z,82.50
2022-09-13T20:58:42.468Z,82.30
2022-09-13T21:04:17.577Z,82.40
2022-09-13T21:07:02.475Z,82.60
2022-09-13T21:09:29.550Z,82.70
2022-09-13T21:11:56.192Z,82.90
2022-09-13T21:14:23.611Z,83.00
2022-09-13T21:16:50.285Z,83.10
2022-09-13T21:19:16.908Z,83.20
2022-09-13T21:21:43.808Z,83.40
2022-09-13T21:24:12.604Z,83.60
2022-09-13T21:26:42.213Z,83.60
2022-09-13T21:29:27.205Z,84.20
2022-09-13T21:31:55.791Z,84.20
2022-09-13T21:34:24.336Z,84.50
2022-09-13T21:36:51.228Z,84.30
2022-09-13T21:39:29.989Z,84.50
2022-09-13T21:41:56.720Z,84.60
2022-09-13T21:44:36.198Z,84.40
2022-09-13T21:47:03.116Z,84.40
2022-09-13T21:49:29.879Z,84.20
2022-09-13T21:51:56.652Z,85.10
2022-09-13T21:54:23.351Z,85.20
2022-09-13T21:56:52.312Z,85.10
2022-09-13T21:59:20.813Z,84.80
2022-09-13T22:01:51.283Z,84.80
2022-09-13T22:04:27.045Z,84.80
2022-09-13T22:06:54.076Z,85.50
2022-09-13T22:09:23.403Z,85.50
2022-09-13T22:11:50.174Z,85.40
2022-09-13T22:14:19.749Z,86.00
2022-09-13T22:16:46.764Z,85.70
2022-09-13T22:19:19.577Z,85.80
2022-09-13T22:21:48.578Z,86.20
2022-09-13T22:24:20.831Z,86.30
2022-09-13T22:26:49.212Z,86.50
2022-09-13T22:29:16.933Z,86.60
2022-09-13T22:31:45.408Z,86.70
2022-09-13T22:34:16.141Z,86.80
2022-09-13T22:36:43.008Z,87.30
2022-09-13T22:39:14.371Z,87.30
2022-09-13T22:41:41.781Z,87.20
2022-09-13T22:44:08.556Z,87.00
2022-09-13T22:46:38.133Z,86.90
2022-09-13T22:49:05.931Z,86.80
2022-09-13T22:51:33.454Z,86.70
2022-09-13T22:54:04.839Z,86.60
2022-09-13T22:56:35.107Z,86.40
2022-09-13T22:59:13.787Z,86.10
2022-09-13T23:01:40.678Z,85.90
2022-09-13T23:04:07.491Z,85.80
2022-09-13T23:06:34.622Z,85.70
2022-09-13T23:09:03.685Z,85.80
2022-09-13T23:11:35.843Z,85.10
2022-09-13T23:14:05.463Z,84.90
2022-09-13T23:16:35.011Z,84.70
2022-09-13T23:19:01.726Z,84.70
2022-09-13T23:21:32.274Z,84.70
2022-09-13T23:24:00.474Z,84.80
2022-09-13T23:26:27.630Z,84.80
2022-09-13T23:28:56.951Z,85.00
2022-09-13T23:31:26.636Z,84.90
2022-09-13T23:33:56.718Z,84.80
2022-09-13T23:36:26.027Z,84.40
2022-09-13T23:38:55.875Z,84.20
2022-09-13T23:41:23.042Z,84.10
2022-09-13T23:43:49.704Z,84.20
2022-09-13T23:46:17.111Z,83.90
2022-09-13T23:48:44.300Z,83.70
2022-09-13T23:51:20.127Z,83.70
2022-09-13T23:53:47.133Z,83.30
2022-09-13T23:56:14.165Z,83.00
2022-09-13T23:58:41.020Z,83.10
